sensor_id;sensor_type;location;lat;lon;timestamp;P1;durP1;ratioP1;P2;durP2;ratioP2
20954;SDS011;10636;19.390;-99.256;2023-04-24T02:17:20;7.45;;;6.72;;
20954;SDS011;10636;19.390;-99.256;2023-04-24T02:19:49;7.78;;;7.07;;
20954;SDS011;10636;19.390;-99.256;2023-04-24T02:22:18;8.38;;;6.80;;
20954;SDS011;10636;19.390;-99.256;2023-04-24T02:24:46;7.70;;;7.10;;
20954;SDS011;10636;19.390;-99.256;2023-04-24T02:27:15;7.38;;;6.72;;
20954;SDS011;10636;19.390;-99.256;2023-04-24T02:29:43;7.25;;;6.65;;
20954;SDS011;10636;19.390;-99.256;2023-04-24T02:32:12;8.63;;;7.00;;
20954;SDS011;10636;19.390;-99.256;2023-04-24T02:34:42;7.25;;;6.53;;
20954;SDS011;10636;19.390;-99.256;2023-04-24T02:37:11;8.40;;;7.50;;
20954;SDS011;10636;19.390;-99.256;2023-04-24T02:39:39;7.60;;;6.40;;
20954;SDS011;10636;19.390;-99.256;2023-04-24T02:42:08;7.70;;;6.95;;
20954;SDS011;10636;19.390;-99.256;2023-04-24T02:44:36;8.48;;;7.53;;
20954;SDS011;10636;19.390;-99.256;2023-04-24T02:47:05;8.57;;;7.85;;
20954;SDS011;10636;19.390;-99.256;2023-04-24T02:49:34;9.80;;;8.90;;
20954;SDS011;10636;19.390;-99.256;2023-04-24T02:52:04;10.02;;;8.95;;
20954;SDS011;10636;19.390;-99.256;2023-04-24T02:54:32;11.35;;;10.40;;
20954;SDS011;10636;19.390;-99.256;2023-04-24T02:57:01;11.25;;;10.23;;
20954;SDS011;10636;19.390;-99.256;2023-04-24T02:59:30;9.90;;;8.95;;
20954;SDS011;10636;19.390;-99.256;2023-04-24T03:01:58;9.90;;;9.05;;
20954;SDS011;10636;19.390;-99.256;2023-04-24T03:04:27;9.27;;;8.48;;
20954;SDS011;10636;19.390;-99.256;2023-04-24T03:06:55;8.82;;;8.05;;
20954;SDS011;10636;19.390;-99.256;2023-04-24T03:09:26;9.85;;;8.57;;
20954;SDS011;10636;19.390;-99.256;2023-04-24T03:11:54;9.18;;;8.25;;
20954;SDS011;10636;19.390;-99.256;2023-04-24T03:14:23;9.07;;;8.38;;
20954;SDS011;10636;19.390;-99.256;2023-04-24T03:16:52;9.02;;;8.23;;
20954;SDS011;10636;19.390;-99.256;2023-04-24T03:19:20;9.07;;;8.27;;
20954;SDS011;10636;19.390;-99.256;2023-04-24T03:21:49;9.55;;;8.75;;
20954;SDS011;10636;19.390;-99.256;2023-04-24T03:24:18;9.80;;;8.50;;
20954;SDS011;10636;19.390;-99.256;2023-04-24T03:26:50;9.43;;;8.02;;
20954;SDS011;10636;19.390;-99.256;2023-04-24T03:29:19;9.38;;;8.50;;
20954;SDS011;10636;19.390;-99.256;2023-04-24T03:31:47;9.32;;;8.52;;
20954;SDS011;10636;19.390;-99.256;2023-04-24T03:34:16;9.10;;;8.30;;
20954;SDS011;10636;19.390;-99.256;2023-04-24T03:36:44;9.90;;;8.90;;
20954;SDS011;10636;19.390;-99.256;2023-04-24T03:39:14;9.68;;;8.77;;
20954;SDS011;10636;19.390;-99.256;2023-04-24T03:41:43;9.93;;;8.93;;
20954;SDS011;10636;19.390;-99.256;2023-04-24T03:44:13;10.10;;;9.20;;
20954;SDS011;10636;19.390;-99.256;2023-04-24T03:46:42;10.20;;;9.20;;
20954;SDS011;10636;19.390;-99.256;2023-04-24T03:49:10;10.20;;;9.15;;
20954;SDS011;10636;19.390;-99.256;2023-04-24T03:51:39;10.02;;;9.02;;
20954;SDS011;10636;19.390;-99.256;2023-04-24T03:54:07;10.60;;;9.20;;
20954;SDS011;10636;19.390;-99.256;2023-04-24T03:56:36;9.75;;;8.88;;
20954;SDS011;10636;19.390;-99.256;2023-04-24T03:59:05;10.65;;;9.65;;
20954;SDS011;10636;19.390;-99.256;2023-04-24T04:01:36;10.35;;;9.25;;
20954;SDS011;10636;19.390;-99.256;2023-04-24T04:04:07;10.10;;;9.20;;
20954;SDS011;10636;19.390;-99.256;2023-04-24T04:06:38;10.75;;;9.77;;
20954;SDS011;10636;19.390;-99.256;2023-04-24T04:09:10;11.00;;;9.43;;
20954;SDS011;10636;19.390;-99.256;2023-04-24T04:11:39;10.45;;;9.30;;
20954;SDS011;10636;19.390;-99.256;2023-04-24T04:14:08;10.10;;;9.20;;
20954;SDS011;10636;19.390;-99.256;2023-04-24T04:16:38;10.07;;;9.18;;
20954;SDS011;10636;19.390;-99.256;2023-04-24T04:19:09;10.10;;;9.00;;
20954;SDS011;10636;19.390;-99.256;2023-04-24T04:21:37;9.70;;;8.80;;
20954;SDS011;10636;19.390;-99.256;2023-04-24T04:24:06;9.90;;;8.95;;
20954;SDS011;10636;19.390;-99.256;2023-04-24T04:26:35;9.60;;;8.80;;
20954;SDS011;10636;19.390;-99.256;2023-04-24T04:29:03;9.70;;;8.80;;
20954;SDS011;10636;19.390;-99.256;2023-04-24T04:31:32;10.27;;;8.93;;
20954;SDS011;10636;19.390;-99.256;2023-04-24T04:34:02;9.45;;;8.65;;
20954;SDS011;10636;19.390;-99.256;2023-04-24T04:36:31;9.60;;;8.70;;
20954;SDS011;10636;19.390;-99.256;2023-04-24T04:39:02;9.05;;;8.30;;
20954;SDS011;10636;19.390;-99.256;2023-04-24T04:41:30;9.75;;;8.85;;
20954;SDS011;10636;19.390;-99.256;2023-04-24T04:44:00;9.73;;;8.73;;
20954;SDS011;10636;19.390;-99.256;2023-04-24T04:46:30;9.52;;;8.68;;
20954;SDS011;10636;19.390;-99.256;2023-04-24T04:48:59;9.52;;;8.73;;
20954;SDS011;10636;19.390;-99.256;2023-04-24T04:51:34;9.90;;;9.00;;
20954;SDS011;10636;19.390;-99.256;2023-04-24T04:54:02;9.88;;;8.95;;
20954;SDS011;10636;19.390;-99.256;2023-04-24T04:56:33;9.25;;;8.45;;
20954;SDS011;10636;19.390;-99.256;2023-04-24T04:59:01;9.32;;;8.63;;
20954;SDS011;10636;19.390;-99.256;2023-04-24T05:01:30;9.27;;;8.55;;
20954;SDS011;10636;19.390;-99.256;2023-04-24T05:04:00;9.23;;;8.32;;
20954;SDS011;10636;19.390;-99.256;2023-04-24T05:06:36;9.00;;;8.20;;
20954;SDS011;10636;19.390;-99.256;2023-04-24T05:09:07;9.88;;;9.05;;
20954;SDS011;10636;19.390;-99.256;2023-04-24T05:11:36;8.82;;;8.13;;
20954;SDS011;10636;19.390;-99.256;2023-04-24T05:14:04;8.65;;;7.95;;
20954;SDS011;10636;19.390;-99.256;2023-04-24T05:16:33;8.70;;;8.00;;
20954;SDS011;10636;19.390;-99.256;2023-04-24T05:19:02;9.13;;;8.32;;
20954;SDS011;10636;19.390;-99.256;2023-04-24T05:21:32;8.90;;;8.20;;
20954;SDS011;10636;19.390;-99.256;2023-04-24T05:24:01;9.25;;;8.43;;
20954;SDS011;10636;19.390;-99.256;2023-04-24T05:26:30;9.23;;;8.43;;
20954;SDS011;10636;19.390;-99.256;2023-04-24T05:28:58;9.25;;;8.55;;
20954;SDS011;10636;19.390;-99.256;2023-04-24T05:31:27;9.38;;;8.57;;
20954;SDS011;10636;19.390;-99.256;2023-04-24T05:33:56;9.60;;;8.80;;
20954;SDS011;10636;19.390;-99.256;2023-04-24T05:36:24;9.75;;;8.85;;
20954;SDS011;10636;19.390;-99.256;2023-04-24T05:38:55;9.15;;;8.35;;
20954;SDS011;10636;19.390;-99.256;2023-04-24T05:41:23;8.85;;;8.15;;
20954;SDS011;10636;19.390;-99.256;2023-04-24T05:43:52;9.52;;;8.73;;
20954;SDS011;10636;19.390;-99.256;2023-04-24T05:46:20;8.68;;;7.97;;
20954;SDS011;10636;19.390;-99.256;2023-04-24T05:48:51;9.88;;;8.73;;
20954;SDS011;10636;19.390;-99.256;2023-04-24T05:51:19;9.50;;;8.70;;
20954;SDS011;10636;19.390;-99.256;2023-04-24T05:53:48;9.15;;;8.45;;
20954;SDS011;10636;19.390;-99.256;2023-04-24T05:56:18;9.80;;;8.90;;
20954;SDS011;10636;19.390;-99.256;2023-04-24T05:58:47;9.20;;;8.40;;
20954;SDS011;10636;19.390;-99.256;2023-04-24T06:01:16;9.52;;;8.73;;
20954;SDS011;10636;19.390;-99.256;2023-04-24T06:03:45;9.27;;;8.57;;
20954;SDS011;10636;19.390;-99.256;2023-04-24T06:06:16;9.23;;;8.52;;
20954;SDS011;10636;19.390;-99.256;2023-04-24T06:08:45;9.52;;;8.73;;
20954;SDS011;10636;19.390;-99.256;2023-04-24T06:11:13;9.45;;;8.63;;
20954;SDS011;10636;19.390;-99.256;2023-04-24T06:13:43;9.02;;;8.32;;
20954;SDS011;10636;19.390;-99.256;2023-04-24T06:16:12;9.30;;;8.55;;
20954;SDS011;10636;19.390;-99.256;2023-04-24T06:18:40;9.57;;;8.68;;
20954;SDS011;10636;19.390;-99.256;2023-04-24T06:21:09;9.00;;;8.20;;
20954;SDS011;10636;19.390;-99.256;2023-04-24T06:23:37;9.05;;;8.25;;
20954;SDS011;10636;19.390;-99.256;2023-04-24T06:26:06;9.43;;;8.73;;
20954;SDS011;10636;19.390;-99.256;2023-04-24T06:28:34;9.15;;;8.45;;
20954;SDS011;10636;19.390;-99.256;2023-04-24T06:31:04;9.50;;;8.70;;
20954;SDS011;10636;19.390;-99.256;2023-04-24T06:33:33;8.98;;;8.23;;
20954;SDS011;10636;19.390;-99.256;2023-04-24T06:36:01;9.40;;;8.70;;
20954;SDS011;10636;19.390;-99.256;2023-04-24T06:38:30;9.65;;;8.77;;
20954;SDS011;10636;19.390;-99.256;2023-04-24T06:40:59;9.38;;;8.60;;
20954;SDS011;10636;19.390;-99.256;2023-04-24T06:43:28;8.63;;;7.93;;
20954;SDS011;10636;19.390;-99.256;2023-04-24T06:45:57;8.75;;;7.95;;
20954;SDS011;10636;19.390;-99.256;2023-04-24T06:48:28;8.88;;;8.10;;
20954;SDS011;10636;19.390;-99.256;2023-04-24T06:50:56;9.13;;;8.32;;
20954;SDS011;10636;19.390;-99.256;2023-04-24T06:53:25;8.82;;;8.02;;
20954;SDS011;10636;19.390;-99.256;2023-04-24T06:55:53;8.48;;;7.78;;
20954;SDS011;10636;19.390;-99.256;2023-04-24T06:58:22;9.55;;;8.75;;
20954;SDS011;10636;19.390;-99.256;2023-04-24T07:00:51;8.90;;;8.20;;
20954;SDS011;10636;19.390;-99.256;2023-04-24T07:03:19;8.65;;;7.95;;
20954;SDS011;10636;19.390;-99.256;2023-04-24T07:05:50;9.10;;;8.40;;
20954;SDS011;10636;19.390;-99.256;2023-04-24T07:08:19;9.32;;;8.52;;
20954;SDS011;10636;19.390;-99.256;2023-04-24T07:10:48;8.63;;;7.93;;
20954;SDS011;10636;19.390;-99.256;2023-04-24T07:13:17;9.27;;;8.57;;
20954;SDS011;10636;19.390;-99.256;2023-04-24T07:15:46;8.95;;;8.25;;
20954;SDS011;10636;19.390;-99.256;2023-04-24T07:18:16;8.55;;;7.95;;
20954;SDS011;10636;19.390;-99.256;2023-04-24T07:20:44;8.85;;;8.23;;
20954;SDS011;10636;19.390;-99.256;2023-04-24T07:23:14;8.55;;;7.85;;
20954;SDS011;10636;19.390;-99.256;2023-04-24T07:25:43;9.02;;;8.32;;
20954;SDS011;10636;19.390;-99.256;2023-04-24T07:28:12;8.98;;;8.15;;
20954;SDS011;10636;19.390;-99.256;2023-04-24T07:30:41;9.40;;;8.55;;
20954;SDS011;10636;19.390;-99.256;2023-04-24T07:33:09;9.20;;;8.40;;
20954;SDS011;10636;19.390;-99.256;2023-04-24T07:35:38;9.30;;;8.45;;
20954;SDS011;10636;19.390;-99.256;2023-04-24T07:38:07;9.18;;;8.32;;
20954;SDS011;10636;19.390;-99.256;2023-04-24T07:40:37;9.20;;;8.40;;
20954;SDS011;10636;19.390;-99.256;2023-04-24T07:43:06;8.82;;;8.13;;
20954;SDS011;10636;19.390;-99.256;2023-04-24T07:45:34;8.75;;;8.05;;
20954;SDS011;10636;19.390;-99.256;2023-04-24T07:48:03;9.23;;;8.43;;
20954;SDS011;10636;19.390;-99.256;2023-04-24T07:50:31;8.88;;;8.18;;
20954;SDS011;10636;19.390;-99.256;2023-04-24T07:53:00;9.57;;;8.70;;
20954;SDS011;10636;19.390;-99.256;2023-04-24T07:55:28;8.75;;;7.97;;
20954;SDS011;10636;19.390;-99.256;2023-04-24T07:57:59;8.93;;;8.13;;
20954;SDS011;10636;19.390;-99.256;2023-04-24T08:00:27;8.77;;;8.07;;
20954;SDS011;10636;19.390;-99.256;2023-04-24T08:02:56;9.02;;;8.32;;
20954;SDS011;10636;19.390;-99.256;2023-04-24T08:05:24;8.40;;;7.78;;
20954;SDS011;10636;19.390;-99.256;2023-04-24T08:07:54;8.65;;;8.05;;
20954;SDS011;10636;19.390;-99.256;2023-04-24T08:10:22;8.75;;;8.02;;
20954;SDS011;10636;19.390;-99.256;2023-04-24T08:12:51;8.27;;;7.68;;
20954;SDS011;10636;19.390;-99.256;2023-04-24T08:15:22;8.77;;;8.07;;
20954;SDS011;10636;19.390;-99.256;2023-04-24T08:17:51;8.50;;;7.80;;
20954;SDS011;10636;19.390;-99.256;2023-04-24T08:20:19;8.25;;;7.65;;
20954;SDS011;10636;19.390;-99.256;2023-04-24T08:22:48;8.27;;;7.68;;
20954;SDS011;10636;19.390;-99.256;2023-04-24T08:25:16;8.23;;;7.63;;
20954;SDS011;10636;19.390;-99.256;2023-04-24T08:27:45;8.05;;;7.45;;
20954;SDS011;10636;19.390;-99.256;2023-04-24T08:30:13;8.50;;;7.90;;
20954;SDS011;10636;19.390;-99.256;2023-04-24T08:32:44;8.30;;;7.70;;
20954;SDS011;10636;19.390;-99.256;2023-04-24T08:35:12;8.43;;;7.78;;
20954;SDS011;10636;19.390;-99.256;2023-04-24T08:37:41;8.02;;;7.43;;
20954;SDS011;10636;19.390;-99.256;2023-04-24T08:40:12;8.40;;;7.70;;
20954;SDS011;10636;19.390;-99.256;2023-04-24T08:42:42;8.38;;;7.70;;
20954;SDS011;10636;19.390;-99.256;2023-04-24T08:45:11;8.60;;;8.00;;
20954;SDS011;10636;19.390;-99.256;2023-04-24T08:47:40;9.32;;;8.52;;
20954;SDS011;10636;19.390;-99.256;2023-04-24T08:50:12;8.65;;;7.97;;
20954;SDS011;10636;19.390;-99.256;2023-04-24T08:52:41;8.60;;;7.90;;
20954;SDS011;10636;19.390;-99.256;2023-04-24T08:55:10;8.88;;;8.18;;
20954;SDS011;10636;19.390;-99.256;2023-04-24T08:57:40;8.68;;;7.88;;
20954;SDS011;10636;19.390;-99.256;2023-04-24T09:00:10;8.45;;;7.75;;
20954;SDS011;10636;19.390;-99.256;2023-04-24T09:02:41;8.68;;;7.97;;
20954;SDS011;10636;19.390;-99.256;2023-04-24T09:05:12;8.80;;;8.05;;
20954;SDS011;10636;19.390;-99.256;2023-04-24T09:07:41;9.32;;;8.57;;
20954;SDS011;10636;19.390;-99.256;2023-04-24T09:10:13;8.68;;;7.97;;
20954;SDS011;10636;19.390;-99.256;2023-04-24T09:12:42;8.80;;;8.10;;
20954;SDS011;10636;19.390;-99.256;2023-04-24T09:15:12;9.48;;;8.68;;
20954;SDS011;10636;19.390;-99.256;2023-04-24T09:17:41;8.38;;;7.78;;
20954;SDS011;10636;19.390;-99.256;2023-04-24T09:20:12;9.25;;;8.45;;
20954;SDS011;10636;19.390;-99.256;2023-04-24T09:22:41;9.07;;;8.32;;
20954;SDS011;10636;19.390;-99.256;2023-04-24T09:25:10;8.95;;;8.15;;
20954;SDS011;10636;19.390;-99.256;2023-04-24T09:27:41;9.52;;;8.73;;
20954;SDS011;10636;19.390;-99.256;2023-04-24T09:30:11;8.80;;;8.10;;
20954;SDS011;10636;19.390;-99.256;2023-04-24T09:32:40;8.95;;;8.15;;
20954;SDS011;10636;19.390;-99.256;2023-04-24T09:35:09;8.75;;;8.05;;
20954;SDS011;10636;19.390;-99.256;2023-04-24T09:37:41;9.00;;;8.30;;
20954;SDS011;10636;19.390;-99.256;2023-04-24T09:40:11;9.20;;;8.40;;
20954;SDS011;10636;19.390;-99.256;2023-04-24T09:42:45;9.43;;;8.63;;
20954;SDS011;10636;19.390;-99.256;2023-04-24T09:45:18;9.10;;;8.38;;
20954;SDS011;10636;19.390;-99.256;2023-04-24T09:47:50;9.35;;;8.65;;
20954;SDS011;10636;19.390;-99.256;2023-04-24T09:50:20;9.40;;;8.57;;
20954;SDS011;10636;19.390;-99.256;2023-04-24T09:52:57;9.25;;;8.45;;
20954;SDS011;10636;19.390;-99.256;2023-04-24T09:55:26;9.93;;;8.93;;
20954;SDS011;10636;19.390;-99.256;2023-04-24T09:57:55;9.32;;;8.45;;
20954;SDS011;10636;19.390;-99.256;2023-04-24T10:00:26;9.23;;;8.40;;
20954;SDS011;10636;19.390;-99.256;2023-04-24T10:02:57;9.50;;;8.70;;
20954;SDS011;10636;19.390;-99.256;2023-04-24T10:05:27;9.60;;;8.80;;
20954;SDS011;10636;19.390;-99.256;2023-04-24T10:07:59;9.35;;;8.52;;
20954;SDS011;10636;19.390;-99.256;2023-04-24T10:10:30;9.55;;;8.75;;
20954;SDS011;10636;19.390;-99.256;2023-04-24T10:12:59;9.15;;;8.35;;
20954;SDS011;10636;19.390;-99.256;2023-04-24T10:15:28;9.68;;;8.77;;
20954;SDS011;10636;19.390;-99.256;2023-04-24T10:17:58;9.30;;;8.40;;
20954;SDS011;10636;19.390;-99.256;2023-04-24T10:20:27;9.65;;;8.85;;
20954;SDS011;10636;19.390;-99.256;2023-04-24T10:22:57;9.88;;;9.07;;
20954;SDS011;10636;19.390;-99.256;2023-04-24T10:25:28;10.10;;;9.20;;
20954;SDS011;10636;19.390;-99.256;2023-04-24T10:27:58;10.00;;;9.20;;
20954;SDS011;10636;19.390;-99.256;2023-04-24T10:30:27;9.88;;;9.07;;
20954;SDS011;10636;19.390;-99.256;2023-04-24T10:33:00;9.95;;;9.15;;
20954;SDS011;10636;19.390;-99.256;2023-04-24T10:35:30;10.43;;;9.63;;
20954;SDS011;10636;19.390;-99.256;2023-04-24T10:38:03;10.57;;;9.57;;
20954;SDS011;10636;19.390;-99.256;2023-04-24T10:40:35;9.82;;;9.00;;
20954;SDS011;10636;19.390;-99.256;2023-04-24T10:43:04;10.90;;;9.85;;
20954;SDS011;10636;19.390;-99.256;2023-04-24T10:45:36;10.65;;;9.75;;
20954;SDS011;10636;19.390;-99.256;2023-04-24T10:48:06;10.88;;;9.88;;
20954;SDS011;10636;19.390;-99.256;2023-04-24T10:50:42;10.82;;;9.85;;
20954;SDS011;10636;19.390;-99.256;2023-04-24T10:53:17;10.63;;;9.63;;
20954;SDS011;10636;19.390;-99.256;2023-04-24T10:55:46;10.75;;;9.75;;
20954;SDS011;10636;19.390;-99.256;2023-04-24T10:58:16;10.93;;;9.93;;
20954;SDS011;10636;19.390;-99.256;2023-04-24T11:00:55;10.48;;;9.48;;
20954;SDS011;10636;19.390;-99.256;2023-04-24T11:03:25;11.15;;;10.25;;
20954;SDS011;10636;19.390;-99.256;2023-04-24T11:05:58;11.25;;;10.35;;
20954;SDS011;10636;19.390;-99.256;2023-04-24T11:08:30;10.98;;;9.88;;
20954;SDS011;10636;19.390;-99.256;2023-04-24T11:11:01;11.52;;;10.52;;
20954;SDS011;10636;19.390;-99.256;2023-04-24T11:16:35;11.18;;;10.18;;
20954;SDS011;10636;19.390;-99.256;2023-04-24T11:19:20;11.07;;;9.98;;
20954;SDS011;10636;19.390;-99.256;2023-04-24T11:21:55;11.50;;;10.50;;
20954;SDS011;10636;19.390;-99.256;2023-04-24T11:24:28;11.43;;;10.50;;
20954;SDS011;10636;19.390;-99.256;2023-04-24T11:27:11;11.30;;;10.40;;
20954;SDS011;10636;19.390;-99.256;2023-04-24T11:29:41;11.32;;;10.38;;
20954;SDS011;10636;19.390;-99.256;2023-04-24T11:32:18;11.00;;;9.93;;
20954;SDS011;10636;19.390;-99.256;2023-04-24T11:34:52;11.15;;;10.15;;
20954;SDS011;10636;19.390;-99.256;2023-04-24T11:37:22;11.10;;;10.20;;
20954;SDS011;10636;19.390;-99.256;2023-04-24T11:39:54;11.40;;;10.40;;
20954;SDS011;10636;19.390;-99.256;2023-04-24T11:42:23;10.93;;;10.07;;
20954;SDS011;10636;19.390;-99.256;2023-04-24T11:44:52;11.63;;;10.73;;
20954;SDS011;10636;19.390;-99.256;2023-04-24T11:47:27;11.98;;;10.80;;
20954;SDS011;10636;19.390;-99.256;2023-04-24T11:49:58;11.18;;;10.18;;
20954;SDS011;10636;19.390;-99.256;2023-04-24T11:52:27;11.55;;;10.55;;
20954;SDS011;10636;19.390;-99.256;2023-04-24T11:54:58;11.52;;;10.43;;
20954;SDS011;10636;19.390;-99.256;2023-04-24T11:57:26;13.73;;;12.45;;
20954;SDS011;10636;19.390;-99.256;2023-04-24T11:59:59;15.25;;;12.65;;
20954;SDS011;10636;19.390;-99.256;2023-04-24T12:02:28;13.73;;;11.80;;
20954;SDS011;10636;19.390;-99.256;2023-04-24T12:04:56;14.00;;;12.70;;
20954;SDS011;10636;19.390;-99.256;2023-04-24T12:07:25;17.33;;;15.73;;
20954;SDS011;10636;19.390;-99.256;2023-04-24T12:09:58;17.90;;;15.55;;
20954;SDS011;10636;19.390;-99.256;2023-04-24T12:12:27;18.95;;;16.98;;
20954;SDS011;10636;19.390;-99.256;2023-04-24T12:14:56;18.90;;;17.00;;
20954;SDS011;10636;19.390;-99.256;2023-04-24T12:17:26;18.05;;;16.45;;
20954;SDS011;10636;19.390;-99.256;2023-04-24T12:19:59;18.25;;;16.67;;
20954;SDS011;10636;19.390;-99.256;2023-04-24T12:22:28;17.98;;;16.38;;
20954;SDS011;10636;19.390;-99.256;2023-04-24T12:25:12;16.80;;;15.20;;
20954;SDS011;10636;19.390;-99.256;2023-04-24T12:27:41;16.52;;;15.13;;
20954;SDS011;10636;19.390;-99.256;2023-04-24T12:30:11;16.88;;;15.23;;
20954;SDS011;10636;19.390;-99.256;2023-04-24T12:32:41;17.30;;;15.50;;
20954;SDS011;10636;19.390;-99.256;2023-04-24T12:35:10;16.40;;;14.90;;
20954;SDS011;10636;19.390;-99.256;2023-04-24T12:37:41;16.55;;;14.95;;
20954;SDS011;10636;19.390;-99.256;2023-04-24T12:40:12;16.30;;;14.60;;
20954;SDS011;10636;19.390;-99.256;2023-04-24T12:42:42;15.95;;;14.45;;
20954;SDS011;10636;19.390;-99.256;2023-04-24T12:45:11;15.25;;;13.77;;
20954;SDS011;10636;19.390;-99.256;2023-04-24T12:47:40;18.52;;;16.63;;
20954;SDS011;10636;19.390;-99.256;2023-04-24T12:50:10;16.88;;;15.25;;
20954;SDS011;10636;19.390;-99.256;2023-04-24T12:52:40;16.55;;;15.00;;
20954;SDS011;10636;19.390;-99.256;2023-04-24T12:55:08;15.45;;;13.95;;
20954;SDS011;10636;19.390;-99.256;2023-04-24T12:57:39;16.15;;;14.70;;
20954;SDS011;10636;19.390;-99.256;2023-04-24T13:00:08;15.02;;;13.63;;
20954;SDS011;10636;19.390;-99.256;2023-04-24T13:02:37;15.68;;;14.27;;
20954;SDS011;10636;19.390;-99.256;2023-04-24T13:05:06;15.40;;;13.90;;
20954;SDS011;10636;19.390;-99.256;2023-04-24T13:07:37;15.30;;;13.77;;
20954;SDS011;10636;19.390;-99.256;2023-04-24T13:10:05;16.08;;;14.60;;
20954;SDS011;10636;19.390;-99.256;2023-04-24T13:12:35;16.00;;;14.30;;
20954;SDS011;10636;19.390;-99.256;2023-04-24T13:15:06;14.80;;;13.43;;
20954;SDS011;10636;19.390;-99.256;2023-04-24T13:17:35;15.43;;;13.98;;
20954;SDS011;10636;19.390;-99.256;2023-04-24T13:20:04;15.38;;;13.75;;
20954;SDS011;10636;19.390;-99.256;2023-04-24T13:22:33;15.18;;;13.68;;
20954;SDS011;10636;19.390;-99.256;2023-04-24T13:25:01;14.50;;;13.00;;
20954;SDS011;10636;19.390;-99.256;2023-04-24T13:27:31;14.45;;;12.98;;
20954;SDS011;10636;19.390;-99.256;2023-04-24T13:30:00;14.30;;;12.90;;
20954;SDS011;10636;19.390;-99.256;2023-04-24T13:32:30;15.50;;;13.63;;
20954;SDS011;10636;19.390;-99.256;2023-04-24T13:35:00;15.60;;;14.13;;
20954;SDS011;10636;19.390;-99.256;2023-04-24T13:37:29;14.98;;;13.57;;
20954;SDS011;10636;19.390;-99.256;2023-04-24T13:39:58;14.25;;;12.82;;
20954;SDS011;10636;19.390;-99.256;2023-04-24T13:42:26;14.40;;;12.90;;
20954;SDS011;10636;19.390;-99.256;2023-04-24T13:44:55;14.15;;;12.70;;
20954;SDS011;10636;19.390;-99.256;2023-04-24T13:47:23;15.43;;;13.88;;
20954;SDS011;10636;19.390;-99.256;2023-04-24T13:49:53;14.88;;;13.48;;
20954;SDS011;10636;19.390;-99.256;2023-04-24T13:52:22;15.70;;;14.30;;
20954;SDS011;10636;19.390;-99.256;2023-04-24T13:54:51;15.40;;;13.95;;
20954;SDS011;10636;19.390;-99.256;2023-04-24T13:57:19;14.88;;;13.55;;
20954;SDS011;10636;19.390;-99.256;2023-04-24T13:59:48;15.50;;;14.00;;
20954;SDS011;10636;19.390;-99.256;2023-04-24T14:02:17;15.32;;;13.85;;
20954;SDS011;10636;19.390;-99.256;2023-04-24T14:04:45;16.67;;;14.25;;
20954;SDS011;10636;19.390;-99.256;2023-04-24T14:07:15;17.50;;;14.90;;
20954;SDS011;10636;19.390;-99.256;2023-04-24T14:09:47;16.85;;;15.02;;
20954;SDS011;10636;19.390;-99.256;2023-04-24T14:12:16;17.60;;;15.82;;
20954;SDS011;10636;19.390;-99.256;2023-04-24T14:14:49;17.17;;;15.63;;
20954;SDS011;10636;19.390;-99.256;2023-04-24T14:17:20;17.27;;;15.68;;
20954;SDS011;10636;19.390;-99.256;2023-04-24T14:19:51;17.75;;;16.15;;
20954;SDS011;10636;19.390;-99.256;2023-04-24T14:22:24;17.83;;;16.02;;
20954;SDS011;10636;19.390;-99.256;2023-04-24T14:24:52;20.38;;;16.00;;
20954;SDS011;10636;19.390;-99.256;2023-04-24T14:27:21;18.55;;;16.85;;
20954;SDS011;10636;19.390;-99.256;2023-04-24T14:29:50;18.88;;;17.00;;
20954;SDS011;10636;19.390;-99.256;2023-04-24T14:32:18;19.05;;;17.10;;
20954;SDS011;10636;19.390;-99.256;2023-04-24T14:34:47;19.65;;;17.67;;
20954;SDS011;10636;19.390;-99.256;2023-04-24T14:37:15;18.65;;;16.20;;
20954;SDS011;10636;19.390;-99.256;2023-04-24T14:39:45;18.40;;;16.60;;
20954;SDS011;10636;19.390;-99.256;2023-04-24T14:42:14;17.55;;;15.60;;
20954;SDS011;10636;19.390;-99.256;2023-04-24T14:44:42;19.50;;;17.50;;
20954;SDS011;10636;19.390;-99.256;2023-04-24T14:47:11;18.83;;;16.90;;
20954;SDS011;10636;19.390;-99.256;2023-04-24T14:49:39;19.67;;;17.67;;
20954;SDS011;10636;19.390;-99.256;2023-04-24T14:52:09;18.77;;;16.90;;
20954;SDS011;10636;19.390;-99.256;2023-04-24T14:54:38;19.35;;;17.17;;
20954;SDS011;10636;19.390;-99.256;2023-04-24T14:57:08;19.55;;;17.58;;
20954;SDS011;10636;19.390;-99.256;2023-04-24T14:59:37;20.63;;;18.48;;
20954;SDS011;10636;19.390;-99.256;2023-04-24T15:02:06;20.38;;;18.10;;
20954;SDS011;10636;19.390;-99.256;2023-04-24T15:04:34;21.85;;;19.55;;
20954;SDS011;10636;19.390;-99.256;2023-04-24T15:07:03;20.52;;;18.38;;
20954;SDS011;10636;19.390;-99.256;2023-04-24T15:09:32;22.08;;;19.77;;
20954;SDS011;10636;19.390;-99.256;2023-04-24T15:12:00;20.63;;;18.63;;
20954;SDS011;10636;19.390;-99.256;2023-04-24T15:14:30;21.70;;;19.20;;
20954;SDS011;10636;19.390;-99.256;2023-04-24T15:16:59;20.65;;;17.58;;
20954;SDS011;10636;19.390;-99.256;2023-04-24T15:19:27;20.35;;;18.23;;
20954;SDS011;10636;19.390;-99.256;2023-04-24T15:21:56;21.05;;;18.35;;
20954;SDS011;10636;19.390;-99.256;2023-04-24T15:24:24;21.90;;;17.98;;
20954;SDS011;10636;19.390;-99.256;2023-04-24T15:26:53;21.75;;;19.55;;
20954;SDS011;10636;19.390;-99.256;2023-04-24T15:29:22;21.40;;;19.17;;
20954;SDS011;10636;19.390;-99.256;2023-04-24T15:31:52;21.17;;;18.58;;
20954;SDS011;10636;19.390;-99.256;2023-04-24T15:34:20;19.52;;;17.73;;
20954;SDS011;10636;19.390;-99.256;2023-04-24T15:36:49;19.30;;;17.42;;
20954;SDS011;10636;19.390;-99.256;2023-04-24T15:39:17;24.65;;;20.33;;
20954;SDS011;10636;19.390;-99.256;2023-04-24T15:41:49;23.02;;;19.33;;
20954;SDS011;10636;19.390;-99.256;2023-04-24T15:44:18;20.55;;;18.45;;
20954;SDS011;10636;19.390;-99.256;2023-04-24T15:46:47;19.92;;;17.77;;
20954;SDS011;10636;19.390;-99.256;2023-04-24T15:49:18;18.88;;;16.98;;
20954;SDS011;10636;19.390;-99.256;2023-04-24T15:51:47;21.08;;;18.02;;
20954;SDS011;10636;19.390;-99.256;2023-04-24T15:54:15;21.00;;;18.00;;
20954;SDS011;10636;19.390;-99.256;2023-04-24T15:56:44;19.27;;;16.77;;
20954;SDS011;10636;19.390;-99.256;2023-04-24T15:59:12;19.13;;;17.23;;
20954;SDS011;10636;19.390;-99.256;2023-04-24T16:01:41;19.38;;;17.30;;
20954;SDS011;10636;19.390;-99.256;2023-04-24T16:04:09;21.75;;;18.67;;
20954;SDS011;10636;19.390;-99.256;2023-04-24T16:06:40;20.38;;;17.42;;
20954;SDS011;10636;19.390;-99.256;2023-04-24T16:09:08;20.92;;;18.73;;
20954;SDS011;10636;19.390;-99.256;2023-04-24T16:11:38;22.08;;;19.63;;
20954;SDS011;10636;19.390;-99.256;2023-04-24T16:14:06;22.00;;;19.10;;
20954;SDS011;10636;19.390;-99.256;2023-04-24T16:16:35;21.08;;;18.83;;
20954;SDS011;10636;19.390;-99.256;2023-04-24T16:19:03;20.85;;;17.02;;
20954;SDS011;10636;19.390;-99.256;2023-04-24T16:21:32;18.15;;;16.25;;
20954;SDS011;10636;19.390;-99.256;2023-04-24T16:24:03;17.15;;;15.35;;
20954;SDS011;10636;19.390;-99.256;2023-04-24T16:26:31;20.65;;;15.82;;
20954;SDS011;10636;19.390;-99.256;2023-04-24T16:29:00;18.98;;;16.90;;
20954;SDS011;10636;19.390;-99.256;2023-04-24T16:31:28;20.67;;;15.80;;
20954;SDS011;10636;19.390;-99.256;2023-04-24T16:33:57;25.35;;;16.27;;
20954;SDS011;10636;19.390;-99.256;2023-04-24T16:36:26;19.90;;;16.70;;
20954;SDS011;10636;19.390;-99.256;2023-04-24T16:38:54;224.75;;;32.13;;
20954;SDS011;10636;19.390;-99.256;2023-04-24T16:41:24;58.58;;;20.52;;
20954;SDS011;10636;19.390;-99.256;2023-04-24T16:43:53;19.60;;;14.95;;